joomla templates top joomla templates template joomla

King Air Abend

Wetterbeurteilung mit Hilfe Webcam und ATIS

 

Webcam 1Webcam 2

(Zum vergrößern auf das Bild klicken)

Notam

C0503/18 - COBURG INFO CHANGED TO 128.680 (8.33 KHZ). 28 FEB 12:22 2018 UNTIL PERM. CREATED:
28 FEB 12:22 2018

C1109/18 - ATIS NOT AVBL. 24 APR 14:36 2018 UNTIL 24 JUL 23:59 2018 ESTIMATED. CREATED: 24 APR 14:43 2018

C0132/18 - DIRECTION FINDING STATION (VDF) COMPLETELY WITHDRAWN. 15 FEB 00:01 2018 UNTIL PERM. CREATED: 19 JAN 10:58 2018

Wetteranzeige

Aktuelles Platzwetter Stand 21.10.2018 06:55Z

AvgMinMax
Windrichtung5030120Deg
Windgeschwindigkeit002kt
Sichtweite>10000m
Temperatur7°C
Taupunkt3°C
Feuchte75%
QNH1029.5hPa
QFE975.4hPa
WolkenSKC

Aerodrome Terminal Information Service (ATIS) Coburg

METAR
EDQC 210650Z AUTO VRB01KT 9999 FEW041 07/03 Q1029=

METAR und TAF der Umgebung

[Quelle: ADDS]
METAR
EDDF 210620Z 08007KT CAVOK 05/03 Q1029 NOSIG =
EDDF 210500Z 2106/2212 07005KT CAVOK BECMG 2208/2211 01006KT BKN030 EDDN 210620Z VRB01KT 9999 BCFG NSC 02/01 Q1029 NOSIG =
EDDN 210500Z 2106/2206 VRB02KT CAVOK TEMPO 2110/2116 07005KT EDDE 210620Z 23007KT 9999 FEW025 SCT042 03/03 Q1029 NOSIG =
EDDE 210500Z 2106/2206 24006KT CAVOK BECMG 2108/2110 36004KT BECMG 2119/2121 21006KT
TAF
EDDF 210500Z 2106/2212 07005KT CAVOK BECMG 2208/2211 01006KT BKN030 =
EDDN 210500Z 2106/2206 VRB02KT CAVOK TEMPO 2110/2116 07005KT =
EDDE 210500Z 2106/2206 24006KT CAVOK BECMG 2108/2110 36004KT BECMG 2119/2121 21006KT =

Wetterverlauf

Windvorhersage

Verkehrslandeplatz Coburg Brandensteinsebene
Tower
Zur Brandensteinsebene
96450 Coburg

 

Telefon +49 (0) 95 61 / 9 20 98
Telefax +49 (0) 95 61 / 9 20 06
EMail tower@vlp-coburg.de